Time;durP1;ratioP1;P1;durP2;ratioP2;P2;SDS_P1;SDS_P2;PMS_P1;PMS_P2;Temp;Humidity;BMP_temperature;BMP_pressure;BME280_temperature;BME280_humidity;BME280_pressure;Samples;Min_cycle;Max_cycle;Signal;HPM_P1;HPM_P2
2022/05/31 00:02:25;;;;;;;12.68;9.82;;;;;;;7.86;100.00;99587.19;5034163;28;20435;-79
2022/05/31 00:04:51;;;;;;;10.98;9.80;;;;;;;7.83;100.00;99581.28;5033848;28;20369;-79
2022/05/31 00:07:17;;;;;;;12.27;9.85;;;;;;;7.80;100.00;99587.44;5015863;28;20035;-79
2022/05/31 00:09:43;;;;;;;11.23;8.70;;;;;;;7.78;100.00;99578.00;5016098;28;20068;-78
2022/05/31 00:12:09;;;;;;;10.20;8.55;;;;;;;7.69;100.00;99566.22;5015715;28;20053;-78
2022/05/31 00:14:35;;;;;;;9.40;8.40;;;;;;;7.68;100.00;99567.97;5033889;28;20022;-78
2022/05/31 00:17:01;;;;;;;9.25;8.35;;;;;;;7.72;100.00;99577.34;5033721;28;20026;-79
2022/05/31 00:19:26;;;;;;;17.40;14.93;;;;;;;7.63;100.00;99569.88;5033546;28;20378;-79
2022/05/31 00:22:01;;;;;;;18.35;14.73;;;;;;;7.65;100.00;99575.84;5015937;28;20617;-78
2022/05/31 00:24:27;;;;;;;13.00;11.27;;;;;;;7.60;100.00;99575.19;5033309;28;20051;-79
2022/05/31 00:26:52;;;;;;;12.88;9.95;;;;;;;7.55;100.00;99565.88;5015866;28;20032;-78
2022/05/31 00:29:18;;;;;;;12.68;9.70;;;;;;;7.58;100.00;99574.38;5033426;28;20033;-78
2022/05/31 00:31:46;;;;;;;10.35;9.25;;;;;;;7.50;100.00;99585.03;5033467;28;20060;-78
2022/05/31 00:34:13;;;;;;;12.35;8.68;;;;;;;7.55;100.00;99595.22;5015372;28;20021;-78
2022/05/31 00:36:41;;;;;;;11.30;9.07;;;;;;;7.51;100.00;99593.66;5015519;28;20026;-79
2022/05/31 00:39:07;;;;;;;10.20;8.90;;;;;;;7.52;100.00;99602.25;5015099;28;20134;-79
2022/05/31 00:41:34;;;;;;;9.23;8.32;;;;;;;7.45;100.00;99591.25;5033396;28;20175;-78
2022/05/31 00:44:07;;;;;;;9.73;8.73;;;;;;;7.47;100.00;99597.25;5033434;28;20112;-78
2022/05/31 00:46:45;;;;;;;8.75;7.82;;;;;;;7.48;100.00;99602.38;5033294;28;20575;-79
2022/05/31 00:49:13;;;;;;;9.40;7.65;;;;;;;7.47;100.00;99594.66;5032854;28;20416;-79
2022/05/31 00:51:44;;;;;;;8.43;7.63;;;;;;;7.43;100.00;99590.47;5032906;28;20029;-79
2022/05/31 00:54:16;;;;;;;9.15;8.05;;;;;;;7.43;100.00;99595.66;5014817;28;20049;-79
2022/05/31 00:56:44;;;;;;;11.07;7.47;;;;;;;7.44;100.00;99600.78;4971525;28;20486;-79
2022/05/31 00:59:15;;;;;;;9.75;7.68;;;;;;;7.41;100.00;99605.22;4971416;28;20042;-78
2022/05/31 01:01:44;;;;;;;8.65;7.70;;;;;;;7.33;100.00;99587.38;4971690;28;20114;-79
2022/05/31 01:04:10;;;;;;;11.57;7.38;;;;;;;7.31;100.00;99585.72;4955140;28;20034;-79
2022/05/31 01:06:36;;;;;;;10.30;7.50;;;;;;;7.37;100.00;99606.22;4955399;28;20043;-78
2022/05/31 01:09:03;;;;;;;8.65;7.30;;;;;;;7.38;100.00;99602.75;4971501;28;20127;-78
2022/05/31 01:11:38;;;;;;;9.77;8.05;;;;;;;7.34;100.00;99612.38;4971351;28;20047;-78
2022/05/31 01:14:04;;;;;;;10.82;7.32;;;;;;;7.33;100.00;99610.69;4971367;28;20125;-78
2022/05/31 01:16:29;;;;;;;8.63;7.72;;;;;;;7.24;100.00;99601.44;4954864;28;20129;-78
2022/05/31 01:18:55;;;;;;;11.05;8.20;;;;;;;7.22;100.00;99603.25;4955099;28;20042;-78
2022/05/31 01:21:20;;;;;;;9.15;8.25;;;;;;;7.24;100.00;99608.38;4971074;28;20031;-79
2022/05/31 01:24:05;;;;;;;8.65;7.72;;;;;;;7.12;100.00;99588.94;4971226;28;20030;-78
2022/05/31 01:27:11;;;;;;;8.43;7.47;;;;;;;7.19;100.00;99607.69;4971974;28;20118;-79
2022/05/31 01:29:39;;;;;;;9.73;7.63;;;;;;;7.15;100.00;99604.34;4951978;29;20559;-79
2022/05/31 01:32:10;;;;;;;8.68;7.78;;;;;;;7.11;100.00;99615.72;4932483;29;20042;-79
2022/05/31 01:34:52;;;;;;;9.20;7.97;;;;;;;7.11;100.00;99620.06;4932626;29;20074;-78
2022/05/31 01:37:21;;;;;;;8.43;7.47;;;;;;;7.00;100.00;99610.91;4916448;29;20044;-78
2022/05/31 01:39:51;;;;;;;10.07;7.75;;;;;;;7.03;100.00;99629.81;4932658;29;20046;-78
2022/05/31 01:42:43;;;;;;;8.87;7.83;;;;;;;6.98;100.00;99623.03;4931914;29;20083;-79
2022/05/31 01:45:12;;;;;;;8.48;7.57;;;;;;;6.99;100.00;99629.94;4916621;29;20280;-78
2022/05/31 01:47:38;;;;;;;9.75;7.75;;;;;;;6.96;100.00;99618.81;4932523;29;20494;-79
2022/05/31 01:50:08;;;;;;;9.88;7.63;;;;;;;6.96;100.00;99619.66;4932493;29;20202;-78
2022/05/31 01:52:34;;;;;;;9.67;8.30;;;;;;;6.86;100.00;99597.53;4932223;29;20039;-78
2022/05/31 01:54:59;;;;;;;9.23;8.23;;;;;;;6.94;100.00;99615.41;4932461;29;20055;-79
2022/05/31 01:57:27;;;;;;;9.35;8.43;;;;;;;6.90;100.00;99606.91;4932215;29;20047;-79
2022/05/31 02:00:00;;;;;;;10.32;7.75;;;;;;;6.93;100.00;99617.16;4916531;29;20039;-78
2022/05/31 02:02:25;;;;;;;10.48;7.57;;;;;;;6.88;100.00;99607.88;4913038;29;20504;-79
2022/05/31 02:04:51;;;;;;;8.90;8.00;;;;;;;6.83;100.00;99618.38;4917105;29;20044;-79
2022/05/31 02:07:19;;;;;;;9.55;8.23;;;;;;;6.82;100.00;99616.66;4951647;29;20077;-79
2022/05/31 02:09:48;;;;;;;8.80;7.90;;;;;;;6.71;100.00;99614.41;4935351;28;20028;-78
2022/05/31 02:12:14;;;;;;;9.07;7.95;;;;;;;6.78;100.00;99620.22;4951212;29;20043;-79
2022/05/31 02:14:41;;;;;;;8.95;8.05;;;;;;;6.76;100.00;99616.84;4951489;29;20418;-78
2022/05/31 02:17:07;;;;;;;9.95;7.72;;;;;;;6.68;100.00;99600.72;4951218;29;20130;-78
2022/05/31 02:19:33;;;;;;;8.23;7.43;;;;;;;6.71;100.00;99614.41;4951235;29;20621;-79
2022/05/31 02:22:04;;;;;;;8.88;7.97;;;;;;;6.68;100.00;99606.75;4935162;29;20187;-78
2022/05/31 02:24:30;;;;;;;10.65;7.80;;;;;;;6.70;100.00;99611.84;4951418;29;20067;-78
2022/05/31 02:26:56;;;;;;;8.60;7.80;;;;;;;6.69;100.00;99611.00;4951270;29;20479;-78
2022/05/31 02:29:27;;;;;;;8.77;7.88;;;;;;;6.68;100.00;99614.50;4951130;29;20078;-78
2022/05/31 02:31:55;;;;;;;9.05;7.72;;;;;;;6.67;100.00;99607.66;4935140;28;20073;-78
2022/05/31 02:34:23;;;;;;;12.50;8.75;;;;;;;6.67;100.00;99617.16;4986303;28;20038;-78
2022/05/31 02:36:50;;;;;;;8.93;8.02;;;;;;;6.61;100.00;99607.81;4992351;28;20061;-78
2022/05/31 02:39:16;;;;;;;9.70;7.75;;;;;;;6.64;100.00;99609.47;4990714;28;20367;-78
2022/05/31 02:41:42;;;;;;;8.23;7.43;;;;;;;6.65;100.00;99621.50;4992258;28;20030;-78
2022/05/31 02:44:08;;;;;;;8.27;7.38;;;;;;;6.60;100.00;99619.06;4992146;28;20490;-78
2022/05/31 02:46:34;;;;;;;8.77;7.88;;;;;;;6.64;100.00;99630.19;4991957;28;20112;-78
2022/05/31 02:49:00;;;;;;;8.63;7.72;;;;;;;6.65;100.00;99637.03;4992227;28;20150;-78
2022/05/31 02:51:26;;;;;;;10.85;8.07;;;;;;;6.64;100.00;99622.41;4992053;28;20482;-79
2022/05/31 02:53:52;;;;;;;7.68;6.95;;;;;;;6.62;100.00;99634.56;4994024;28;20038;-79
2022/05/31 02:56:17;;;;;;;9.02;7.57;;;;;;;6.55;100.00;99620.13;5017240;28;20030;-79
2022/05/31 02:58:44;;;;;;;9.23;8.00;;;;;;;6.56;100.00;99624.38;5017175;28;20079;-78
2022/05/31 03:01:25;;;;;;;8.27;7.47;;;;;;;6.55;100.00;99622.69;5035234;28;20071;-79
2022/05/31 03:03:51;;;;;;;9.43;7.65;;;;;;;6.56;100.00;99630.41;5017257;28;20033;-79
2022/05/31 03:06:18;;;;;;;8.93;8.02;;;;;;;6.56;100.00;99622.66;5034860;28;20080;-79
2022/05/31 03:08:43;;;;;;;7.95;7.15;;;;;;;6.51;100.00;99614.19;5035216;28;20036;-79
2022/05/31 03:11:15;;;;;;;9.57;7.28;;;;;;;6.59;100.00;99624.31;5035029;28;20481;-79
2022/05/31 03:13:43;;;;;;;9.30;8.23;;;;;;;6.56;100.00;99611.44;5017140;28;20041;-78
2022/05/31 03:16:08;;;;;;;8.90;8.00;;;;;;;6.62;100.00;99626.81;5034749;28;20029;-79
2022/05/31 03:18:39;;;;;;;10.90;7.50;;;;;;;6.59;100.00;99611.38;5034541;28;20040;-79
2022/05/31 03:21:10;;;;;;;7.78;7.07;;;;;;;6.63;100.00;99624.16;5016959;28;20017;-79
2022/05/31 03:23:43;;;;;;;9.88;8.05;;;;;;;6.69;100.00;99631.72;5016636;28;20486;-79
2022/05/31 03:26:11;;;;;;;9.23;7.82;;;;;;;6.72;100.00;99630.78;5034650;28;20030;-79
2022/05/31 03:28:37;;;;;;;8.77;7.90;;;;;;;6.74;100.00;99634.16;5016806;28;20040;-79
2022/05/31 03:31:03;;;;;;;10.90;7.93;;;;;;;6.75;100.00;99630.69;5034705;28;20104;-79
2022/05/31 03:33:29;;;;;;;9.90;8.18;;;;;;;6.84;100.00;99630.41;5034262;28;20079;-79
2022/05/31 03:35:54;;;;;;;9.95;8.13;;;;;;;6.86;100.00;99628.59;5034422;28;20029;-79
2022/05/31 03:38:20;;;;;;;9.65;8.25;;;;;;;7.00;100.00;99641.13;5016335;28;20040;-79
2022/05/31 03:40:58;;;;;;;10.05;9.05;;;;;;;6.99;100.00;99635.09;5034476;28;20026;-79
2022/05/31 03:43:26;;;;;;;11.13;9.00;;;;;;;7.12;100.00;99643.31;5034344;28;20143;-79
2022/05/31 03:45:51;;;;;;;12.35;10.15;;;;;;;7.20;100.00;99646.47;5016611;28;20029;-79
2022/05/31 03:48:18;;;;;;;9.80;8.90;;;;;;;7.24;100.00;99645.50;5016542;28;20107;-79
2022/05/31 03:50:44;;;;;;;9.82;7.57;;;;;;;7.31;100.00;99643.56;5033810;28;20025;-79
2022/05/31 03:53:12;;;;;;;10.90;8.30;;;;;;;7.41;100.00;99644.09;5016570;28;20029;-79
2022/05/31 03:55:41;;;;;;;9.18;7.97;;;;;;;7.53;100.00;99642.81;5015849;28;20449;-79
2022/05/31 03:58:08;;;;;;;8.73;7.93;;;;;;;7.70;100.00;99648.28;5016365;28;20052;-79
2022/05/31 04:00:33;;;;;;;11.30;7.75;;;;;;;7.87;100.00;99658.91;5015985;28;20028;-79
2022/05/31 04:02:59;;;;;;;9.00;7.30;;;;;;;8.08;100.00;99652.09;5034147;28;20393;-79
2022/05/31 04:05:25;;;;;;;8.23;7.43;;;;;;;8.35;100.00;99646.81;5015306;28;20123;-79
2022/05/31 04:07:52;;;;;;;8.77;7.88;;;;;;;8.85;100.00;99649.22;5033975;28;20461;-79
2022/05/31 04:10:18;;;;;;;10.75;8.35;;;;;;;9.59;100.00;99654.84;5033867;28;20036;-79
2022/05/31 04:12:43;;;;;;;9.27;8.23;;;;;;;10.38;100.00;99650.53;5015624;28;20025;-79
2022/05/31 04:15:09;;;;;;;8.90;8.00;;;;;;;11.46;100.00;99644.44;5015835;28;20022;-79
2022/05/31 04:17:34;;;;;;;9.75;8.45;;;;;;;13.05;100.00;99650.78;5033336;28;20029;-79
2022/05/31 04:20:00;;;;;;;10.40;8.35;;;;;;;14.84;94.12;99653.13;5033495;28;20030;-79
2022/05/31 04:22:25;;;;;;;10.32;7.72;;;;;;;16.23;84.82;99650.84;5015847;28;20033;-79
2022/05/31 04:24:54;;;;;;;11.90;10.63;;;;;;;16.74;80.07;99663.91;5034103;28;20030;-79
2022/05/31 04:27:21;;;;;;;12.30;9.90;;;;;;;16.17;80.32;99654.72;5033737;28;20584;-79
2022/05/31 04:29:47;;;;;;;10.98;9.65;;;;;;;15.67;82.72;99659.91;5015875;28;20433;-79
2022/05/31 04:32:14;;;;;;;10.40;9.27;;;;;;;15.40;86.00;99667.78;5033365;28;20132;-78
2022/05/31 04:34:39;;;;;;;10.52;9.43;;;;;;;15.12;86.55;99671.38;5033136;28;20029;-79
2022/05/31 04:37:06;;;;;;;13.68;11.75;;;;;;;15.09;86.14;99668.97;5033359;28;20022;-78
2022/05/31 04:39:31;;;;;;;11.75;10.55;;;;;;;15.67;84.46;99661.66;4991130;28;20471;-79
2022/05/31 04:41:56;;;;;;;12.48;11.15;;;;;;;17.31;78.89;99650.91;4991449;28;20177;-79
2022/05/31 04:44:22;;;;;;;11.23;10.10;;;;;;;19.32;71.20;99659.75;4991528;28;20038;-79
2022/05/31 04:46:48;;;;;;;13.18;10.23;;;;;;;20.67;65.05;99651.72;4991347;28;20041;-79
2022/05/31 04:49:14;;;;;;;12.32;9.02;;;;;;;20.41;63.23;99647.88;4991215;28;20030;-80
2022/05/31 04:51:40;;;;;;;10.55;9.48;;;;;;;19.17;65.95;99651.31;4990983;28;20035;-81
2022/05/31 04:54:06;;;;;;;11.68;9.32;;;;;;;18.21;69.17;99653.75;4974669;28;20057;-81
2022/05/31 04:56:33;;;;;;;10.02;8.88;;;;;;;17.63;73.35;99663.44;4974585;28;20478;-81
2022/05/31 04:58:59;;;;;;;10.85;9.75;;;;;;;17.23;74.12;99670.84;4974787;28;20038;-81
2022/05/31 05:01:25;;;;;;;9.70;8.68;;;;;;;17.14;75.73;99672.38;4990840;28;20045;-81
2022/05/31 05:03:51;;;;;;;9.85;8.20;;;;;;;17.83;74.61;99669.88;4974628;28;20038;-81
2022/05/31 05:06:19;;;;;;;9.77;8.00;;;;;;;19.82;68.68;99659.16;4974556;28;20125;-79
2022/05/31 05:08:44;;;;;;;9.80;8.40;;;;;;;21.93;61.40;99662.34;4974463;28;20438;-79
2022/05/31 05:11:13;;;;;;;9.30;7.88;;;;;;;23.24;54.52;99665.75;4990975;28;20039;-79
2022/05/31 05:13:40;;;;;;;8.60;7.68;;;;;;;22.73;53.35;99665.38;4990623;28;20173;-79
2022/05/31 05:16:06;;;;;;;10.45;7.93;;;;;;;21.49;56.08;99679.72;4996469;28;20040;-79
2022/05/31 05:18:34;;;;;;;10.60;8.30;;;;;;;20.58;58.94;99679.00;5031880;28;20040;-79
2022/05/31 05:21:01;;;;;;;9.48;8.10;;;;;;;20.11;61.45;99676.00;5015127;28;20448;-79
2022/05/31 05:23:27;;;;;;;8.23;7.15;;;;;;;19.92;62.60;99674.09;5032204;28;20451;-79
2022/05/31 05:25:54;;;;;;;7.72;6.97;;;;;;;20.08;62.06;99667.50;5032404;28;20083;-79
2022/05/31 05:31:05;;;;;;;7.68;6.97;;;;;;;23.99;51.47;99672.34;5032412;28;20036;-79
2022/05/31 05:33:31;;;;;;;8.25;7.32;;;;;;;25.56;46.13;99675.34;5032192;28;20033;-79
2022/05/31 05:35:57;;;;;;;8.32;7.05;;;;;;;25.02;43.94;99669.59;5032632;28;20025;-79
2022/05/31 05:38:22;;;;;;;8.18;6.95;;;;;;;23.90;46.63;99667.97;5032551;28;20171;-79
2022/05/31 05:40:48;;;;;;;13.48;7.03;;;;;;;23.01;49.55;99663.56;5032068;28;20203;-78
2022/05/31 05:43:14;;;;;;;8.88;6.80;;;;;;;22.45;49.70;99661.06;5032053;28;20034;-79
2022/05/31 05:45:39;;;;;;;6.88;6.13;;;;;;;21.88;49.86;99663.75;5032407;28;20033;-79
2022/05/31 05:48:06;;;;;;;6.28;5.68;;;;;;;21.47;51.65;99657.81;5032469;28;20112;-79
2022/05/31 05:50:36;;;;;;;9.63;6.35;;;;;;;21.33;51.92;99661.75;5031869;28;20028;-79
2022/05/31 05:53:07;;;;;;;6.88;5.53;;;;;;;21.13;52.94;99665.31;5032086;28;20025;-79
2022/05/31 05:55:35;;;;;;;7.85;5.07;;;;;;;21.11;52.71;99665.47;5031964;28;20052;-79
2022/05/31 05:58:01;;;;;;;5.47;4.68;;;;;;;21.12;52.40;99663.66;5014357;28;20029;-79
2022/05/31 06:00:26;;;;;;;5.32;4.80;;;;;;;21.01;52.55;99656.66;5032140;28;20037;-79
2022/05/31 06:03:16;;;;;;;8.40;4.85;;;;;;;21.26;53.38;99673.81;5032154;28;20029;-79
2022/05/31 06:05:45;;;;;;;5.60;4.30;;;;;;;21.21;52.70;99661.97;5031668;28;20037;-79
2022/05/31 06:08:37;;;;;;;7.05;4.60;;;;;;;21.35;53.48;99661.59;5013964;28;20034;-79
2022/05/31 06:11:15;;;;;;;4.75;3.58;;;;;;;21.56;52.61;99672.88;4970623;28;20478;-79
2022/05/31 06:13:53;;;;;;;7.22;4.50;;;;;;;21.62;52.92;99677.63;4970368;28;20085;-79
2022/05/31 06:16:22;;;;;;;4.28;3.88;;;;;;;21.81;52.05;99670.59;4970642;28;20039;-79
2022/05/31 06:18:54;;;;;;;5.10;3.10;;;;;;;21.87;49.86;99681.47;4970403;28;20039;-79
2022/05/31 06:21:23;;;;;;;4.25;2.80;;;;;;;22.22;50.07;99681.84;4970497;28;20038;-79
2022/05/31 06:23:49;;;;;;;2.90;2.60;;;;;;;22.62;49.95;99682.31;4954362;28;20121;-79
2022/05/31 06:26:16;;;;;;;4.22;3.15;;;;;;;22.97;49.53;99682.59;4970665;28;20121;-79
2022/05/31 06:28:43;;;;;;;5.30;3.33;;;;;;;23.58;47.51;99682.66;4972215;28;20082;-79
2022/05/31 06:31:08;;;;;;;4.90;3.10;;;;;;;25.79;42.57;99684.38;4958182;28;20139;-79
2022/05/31 06:33:34;;;;;;;4.38;3.35;;;;;;;28.26;37.02;99693.47;4974206;28;20151;-79
2022/05/31 06:36:01;;;;;;;3.78;2.80;;;;;;;29.68;32.54;99688.53;4974374;28;20053;-77
2022/05/31 06:38:26;;;;;;;3.92;2.72;;;;;;;30.59;31.18;99678.56;4974315;28;20609;-79
2022/05/31 06:40:52;;;;;;;3.50;3.20;;;;;;;31.96;29.06;99683.59;4974069;28;20064;-79
2022/05/31 06:43:18;;;;;;;3.70;3.13;;;;;;;32.62;26.58;99682.63;4974216;28;20104;-79
2022/05/31 06:45:43;;;;;;;4.00;3.17;;;;;;;32.69;25.88;99682.56;4957618;28;20518;-79
2022/05/31 06:48:09;;;;;;;10.07;3.70;;;;;;;33.27;25.14;99674.38;5004974;28;20068;-79
2022/05/31 06:50:34;;;;;;;2.65;2.45;;;;;;;34.55;23.57;99687.34;5035272;28;20390;-77
2022/05/31 06:58:28;;;;;;;4.88;4.22;;;;;;;37.06;21.20;99681.41;5035223;28;20544;-80
2022/05/31 07:00:53;;;;;;;4.10;3.70;;;;;;;38.41;19.75;99684.06;5035058;28;20021;-77
2022/05/31 07:03:19;;;;;;;3.40;3.10;;;;;;;39.23;19.10;99688.53;5026445;28;20024;-78
2022/05/31 07:05:44;;;;;;;4.13;3.72;;;;;;;39.13;18.14;99683.78;5055029;28;20384;-78
2022/05/31 07:08:09;;;;;;;4.07;3.20;;;;;;;39.31;18.14;99677.16;5054923;28;20025;-78
2022/05/31 07:10:35;;;;;;;4.30;3.90;;;;;;;39.24;17.96;99668.41;5054512;28;20032;-78
2022/05/31 07:13:00;;;;;;;5.45;3.80;;;;;;;38.56;18.19;99681.53;5053901;28;20107;-77
2022/05/31 07:15:26;;;;;;;4.53;3.80;;;;;;;39.24;18.47;99673.03;5046797;28;20021;-77
2022/05/31 07:17:51;;;;;;;4.35;3.60;;;;;;;40.61;17.61;99673.91;5038474;28;20021;-76
2022/05/31 07:20:17;;;;;;;4.45;4.05;;;;;;;41.99;15.90;99679.47;5035972;28;20382;-77
2022/05/31 07:22:42;;;;;;;4.20;3.55;;;;;;;42.58;15.45;99672.41;5034460;28;20021;-77
2022/05/31 07:25:09;;;;;;;5.15;3.47;;;;;;;43.14;14.71;99669.34;5034693;28;20047;-77
2022/05/31 07:27:35;;;;;;;3.65;3.17;;;;;;;43.91;14.39;99666.75;5016475;28;20026;-77
2022/05/31 07:30:01;;;;;;;4.95;3.97;;;;;;;43.90;13.49;99670.59;5034779;28;20029;-77
2022/05/31 07:32:26;;;;;;;3.92;3.47;;;;;;;43.76;13.79;99656.72;5016905;28;20495;-77
2022/05/31 07:34:52;;;;;;;3.67;3.30;;;;;;;44.60;12.75;99664.53;5034367;28;20052;-77
2022/05/31 07:37:17;;;;;;;4.65;2.90;;;;;;;44.16;12.97;99651.88;5034415;28;20083;-77
2022/05/31 07:39:43;;;;;;;3.53;2.90;;;;;;;44.26;13.05;99660.03;5033336;28;20034;-78
2022/05/31 07:42:09;;;;;;;2.67;2.28;;;;;;;45.14;12.98;99654.97;5034246;28;20032;-77
2022/05/31 07:44:35;;;;;;;2.50;2.30;;;;;;;45.62;12.20;99653.88;5033963;28;20450;-77
2022/05/31 07:47:00;;;;;;;3.33;2.75;;;;;;;45.50;11.41;99648.84;5034237;28;20060;-78
2022/05/31 07:49:26;;;;;;;2.42;2.22;;;;;;;45.09;11.86;99654.22;5034236;28;20120;-77
2022/05/31 07:51:51;;;;;;;2.78;2.45;;;;;;;45.56;11.96;99649.59;5034008;28;20030;-78
2022/05/31 07:54:17;;;;;;;3.35;2.38;;;;;;;45.18;12.23;99647.75;5034343;28;20531;-78
2022/05/31 07:56:42;;;;;;;3.25;2.00;;;;;;;44.05;12.30;99653.16;5033909;28;20032;-78
2022/05/31 07:59:08;;;;;;;2.15;1.95;;;;;;;43.31;12.52;99639.59;5016502;28;20048;-78
2022/05/31 08:01:33;;;;;;;2.47;2.17;;;;;;;42.77;12.52;99653.41;5034193;28;20030;-78
2022/05/31 08:03:59;;;;;;;2.53;2.10;;;;;;;42.75;12.80;99645.50;5033778;28;20064;-77
2022/05/31 08:06:29;;;;;;;2.70;2.50;;;;;;;42.56;12.98;99637.09;5033964;28;20160;-77
2022/05/31 08:08:56;;;;;;;2.22;2.03;;;;;;;43.24;12.25;99630.91;5034065;28;20033;-77
2022/05/31 08:11:33;;;;;;;2.20;2.00;;;;;;;43.21;12.53;99639.69;5033716;28;20025;-77
2022/05/31 08:13:59;;;;;;;3.17;2.30;;;;;;;40.57;13.71;99642.75;5015926;28;20032;-77
2022/05/31 08:16:28;;;;;;;3.70;2.17;;;;;;;36.07;17.14;99638.19;5015912;28;20030;-79
2022/05/31 08:18:57;;;;;;;2.15;2.00;;;;;;;32.97;20.12;99628.28;5015690;28;20025;-79
2022/05/31 08:21:28;;;;;;;4.22;2.20;;;;;;;30.66;22.60;99625.66;5033577;28;20415;-79
2022/05/31 08:23:59;;;;;;;4.22;2.10;;;;;;;28.95;24.90;99626.06;5033489;28;20037;-79
2022/05/31 08:26:25;;;;;;;2.00;1.80;;;;;;;27.83;26.58;99620.97;5033612;28;20033;-79
2022/05/31 08:28:51;;;;;;;2.70;2.03;;;;;;;26.91;27.28;99615.69;5033236;28;20029;-79
2022/05/31 08:31:23;;;;;;;3.20;2.90;;;;;;;26.21;28.27;99629.03;5033542;28;20099;-79
2022/05/31 08:33:48;;;;;;;2.03;1.92;;;;;;;25.16;29.25;99613.03;5015326;28;20037;-79
2022/05/31 08:36:14;;;;;;;2.30;1.80;;;;;;;25.00;29.97;99623.66;5015331;28;20036;-79
2022/05/31 08:38:40;;;;;;;2.63;2.17;;;;;;;24.66;31.36;99615.78;5033246;28;20033;-79
2022/05/31 08:41:28;;;;;;;2.47;2.17;;;;;;;24.39;31.65;99628.31;5015870;28;20386;-79
2022/05/31 08:44:12;;;;;;;2.20;2.00;;;;;;;24.21;31.42;99622.22;5015161;28;20017;-79
2022/05/31 08:46:46;;;;;;;2.55;2.20;;;;;;;24.02;32.00;99615.31;5032952;28;20037;-78
2022/05/31 08:49:21;;;;;;;4.28;2.60;;;;;;;23.79;32.03;99623.84;5015330;28;20060;-79
2022/05/31 08:52:04;;;;;;;2.90;2.60;;;;;;;23.21;33.89;99628.84;5032885;28;20025;-79
2022/05/31 08:57:33;;;;;;;2.58;2.22;;;;;;;22.73;37.23;99614.09;5033014;28;20040;-79
2022/05/31 09:00:17;;;;;;;2.40;2.20;;;;;;;22.72;37.11;99612.44;5033147;28;20506;-79
2022/05/31 09:02:51;;;;;;;2.92;2.53;;;;;;;22.67;36.92;99611.06;5032735;28;20033;-79
2022/05/31 09:05:43;;;;;;;3.83;2.40;;;;;;;22.48;37.64;99602.38;5032666;28;20037;-79
2022/05/31 09:08:24;;;;;;;3.80;2.20;;;;;;;22.10;36.42;99605.03;4971547;28;20537;-79
2022/05/31 09:10:59;;;;;;;3.28;2.13;;;;;;;21.87;37.32;99609.06;4971262;28;20043;-79
2022/05/31 09:13:43;;;;;;;2.40;2.20;;;;;;;21.42;37.14;99602.59;4955264;28;20066;-78
2022/05/31 09:16:29;;;;;;;3.45;2.70;;;;;;;21.16;38.19;99610.28;4955200;28;20054;-78
2022/05/31 09:19:00;;;;;;;2.50;2.25;;;;;;;20.88;38.14;99609.28;4971043;28;20375;-79
2022/05/31 09:21:40;;;;;;;4.82;2.28;;;;;;;20.89;39.25;99610.94;4971376;28;20150;-79
2022/05/31 09:24:11;;;;;;;2.67;2.33;;;;;;;20.84;39.01;99612.34;4955044;28;20137;-78
2022/05/31 09:27:04;;;;;;;3.55;2.35;;;;;;;20.83;38.96;99614.16;4971184;28;20077;-79
2022/05/31 09:29:45;;;;;;;3.53;2.10;;;;;;;20.68;38.97;99619.00;4971292;28;20039;-79
2022/05/31 09:32:48;;;;;;;3.05;2.70;;;;;;;20.74;38.81;99603.56;4971148;28;20130;-78
2022/05/31 09:35:29;;;;;;;3.08;2.60;;;;;;;20.73;38.34;99607.16;4971201;28;20054;-79
2022/05/31 09:38:07;;;;;;;2.40;1.95;;;;;;;20.77;38.16;99608.56;4954568;28;20023;-78
2022/05/31 09:40:41;;;;;;;2.47;2.03;;;;;;;20.63;37.44;99600.06;4971119;28;20411;-79
2022/05/31 09:43:18;;;;;;;4.78;2.47;;;;;;;20.58;37.61;99596.97;4971476;28;20035;-79
2022/05/31 09:46:03;;;;;;;2.45;2.20;;;;;;;20.48;37.42;99597.88;5012530;28;20504;-79
2022/05/31 09:48:28;;;;;;;6.55;3.15;;;;;;;20.40;37.51;99588.84;5014440;28;20029;-79
2022/05/31 09:51:01;;;;;;;10.63;4.57;;;;;;;20.33;37.25;99585.06;5014008;28;20535;-78
2022/05/31 09:59:09;;;;;;;2.78;2.10;;;;;;;20.30;38.06;99573.91;5031943;28;20040;-79
2022/05/31 10:01:43;;;;;;;7.90;3.03;;;;;;;20.40;38.59;99558.91;5014068;28;20029;-78
2022/05/31 10:04:11;;;;;;;6.22;2.80;;;;;;;20.49;39.78;99559.94;5031585;28;20029;-78
2022/05/31 10:06:54;;;;;;;13.68;3.85;;;;;;;20.56;39.61;99568.97;5014046;28;20033;-78
2022/05/31 10:09:22;;;;;;;9.07;4.00;;;;;;;20.39;39.70;99558.09;5031851;28;20108;-78
2022/05/31 10:11:49;;;;;;;4.18;2.78;;;;;;;20.30;39.90;99564.16;5031523;28;20439;-78
2022/05/31 10:14:31;;;;;;;7.88;2.85;;;;;;;20.43;40.13;99570.03;5031627;28;20028;-78
2022/05/31 10:17:35;;;;;;;40.30;5.07;;;;;;;20.49;39.46;99571.34;5013829;28;20477;-78
2022/05/31 10:20:22;;;;;;;4.90;2.55;;;;;;;20.46;40.04;99573.41;4931681;29;20374;-78
2022/05/31 10:23:03;;;;;;;5.22;2.20;;;;;;;20.32;39.63;99556.13;4931901;29;20035;-78
2022/05/31 10:25:31;;;;;;;2.63;2.28;;;;;;;20.32;39.14;99554.28;4932124;29;20081;-78
2022/05/31 10:28:02;;;;;;;2.83;2.40;;;;;;;20.23;39.15;99543.72;4931991;29;20040;-78
2022/05/31 10:30:30;;;;;;;3.80;2.50;;;;;;;20.23;39.46;99557.75;4932096;29;20036;-78
2022/05/31 10:33:16;;;;;;;2.30;2.10;;;;;;;20.32;39.93;99553.47;4931963;29;20032;-78
2022/05/31 10:35:43;;;;;;;3.83;2.65;;;;;;;20.23;39.68;99536.59;4932000;29;20403;-78
2022/05/31 10:38:17;;;;;;;5.20;3.67;;;;;;;20.35;39.00;99551.38;4931988;29;20590;-78
2022/05/31 10:40:48;;;;;;;3.45;2.30;;;;;;;20.47;39.32;99556.53;4931969;29;20063;-78
2022/05/31 10:43:32;;;;;;;3.63;1.90;;;;;;;20.64;39.56;99559.38;4931717;29;20036;-78
2022/05/31 10:45:58;;;;;;;4.50;2.20;;;;;;;20.82;39.81;99546.31;4931987;29;20527;-79
2022/05/31 10:48:26;;;;;;;3.22;2.30;;;;;;;21.01;38.58;99542.81;4931933;29;20032;-78
2022/05/31 10:51:02;;;;;;;4.47;2.50;;;;;;;21.02;38.19;99536.53;4939719;29;20402;-78
2022/05/31 10:53:45;;;;;;;4.03;2.45;;;;;;;21.02;38.02;99539.16;4967817;28;20046;-78
2022/05/31 10:56:20;;;;;;;2.80;2.50;;;;;;;20.78;37.51;99536.16;4978194;28;20071;-78
2022/05/31 10:59:00;;;;;;;2.90;1.92;;;;;;;20.62;38.55;99537.53;5031321;28;20477;-78
2022/05/31 11:01:34;;;;;;;2.30;2.10;;;;;;;20.64;38.69;99540.03;5026375;28;20484;-78
2022/05/31 11:04:34;;;;;;;3.15;2.30;;;;;;;20.57;39.22;99537.09;5031113;28;20268;-78
2022/05/31 11:07:08;;;;;;;7.85;3.00;;;;;;;20.54;39.33;99531.25;5008876;28;20112;-78
2022/05/31 11:12:44;;;;;;;2.40;2.20;;;;;;;20.49;38.94;99528.19;5009249;28;20052;-78
2022/05/31 11:15:25;;;;;;;2.60;2.40;;;;;;;20.43;37.86;99529.53;4970478;28;20034;-78
2022/05/31 11:18:05;;;;;;;2.92;2.00;;;;;;;20.48;38.51;99519.41;4973683;28;20407;-78
2022/05/31 11:20:57;;;;;;;2.07;1.97;;;;;;;20.63;38.57;99514.53;4973713;28;20031;-78
2022/05/31 11:23:56;;;;;;;3.25;2.20;;;;;;;20.76;37.96;99515.09;4973591;28;20122;-78
2022/05/31 11:26:39;;;;;;;3.85;2.70;;;;;;;20.85;38.61;99518.72;4973462;28;20030;-78
2022/05/31 11:29:17;;;;;;;2.60;2.40;;;;;;;20.81;38.24;99512.84;4973231;28;20070;-78
2022/05/31 11:31:59;;;;;;;2.70;2.40;;;;;;;20.73;37.44;99515.41;4973447;28;20094;-77
2022/05/31 11:34:35;;;;;;;3.40;2.50;;;;;;;20.62;37.42;99505.75;4957132;28;20027;-77
2022/05/31 11:37:25;;;;;;;4.70;2.15;;;;;;;20.77;37.75;99513.28;4973007;28;20035;-77
2022/05/31 11:40:01;;;;;;;3.28;2.30;;;;;;;21.05;38.16;99506.28;4972813;28;20172;-77
2022/05/31 11:42:39;;;;;;;2.25;2.00;;;;;;;21.34;37.76;99493.03;4972943;28;20113;-77
2022/05/31 11:45:04;;;;;;;3.10;2.15;;;;;;;21.59;37.69;99486.25;4989279;28;20034;-77
2022/05/31 11:47:48;;;;;;;3.28;2.60;;;;;;;21.65;36.87;99498.91;5034243;28;20095;-77
2022/05/31 11:50:44;;;;;;;4.55;2.40;;;;;;;21.65;35.98;99496.25;5033992;28;20171;-77
2022/05/31 11:53:41;;;;;;;9.32;3.50;;;;;;;21.68;36.32;99504.75;5033879;28;20060;-78
2022/05/31 11:56:14;;;;;;;5.10;2.20;;;;;;;21.61;36.53;99497.50;5033743;28;20034;-77
2022/05/31 11:58:48;;;;;;;14.48;4.43;;;;;;;21.45;36.67;99482.25;5046616;28;20082;-78
2022/05/31 12:01:38;;;;;;;6.32;2.65;;;;;;;21.27;36.49;99489.22;5054116;28;20142;-78
2022/05/31 12:04:40;;;;;;;2.33;2.00;;;;;;;21.10;37.02;99485.50;5036073;28;20028;-78
2022/05/31 12:07:40;;;;;;;3.15;2.17;;;;;;;20.96;37.51;99460.31;4991763;28;20129;-78
2022/05/31 12:10:26;;;;;;;4.80;2.38;;;;;;;21.05;37.74;99463.94;4992269;28;20026;-78